Bradshaw Army Airfield Camp Pohakuloa US
ICAO: PHSF
IATA:
Category: Medium
Scheduled Services:

Elevation: 6190 ft
TransAlt. 18000 ft.

Airport Communications:
HONOLULU CNTR:126
ATIS:124.7
CTAF:126.3
RANGE:38.3
PMSV METRO:122.75
HONOLULU RDO:25.54
TWR:41.5

PHSF Zoom In..

Runways:

(A) RW 09 length 3695 ft width 90 ft
---- / hdg 91

(B) RW 27 length 3695 ft width 90 ft
---- / hdg 271

Location; PHSF
Day. 21 / Time. 23.56 Zulu
* Altimeter: 30.21
* Temperature: 19° c. 66.2°f.
* Wind from: 170° Speed 12 kn with Gusts up to 19 kn.
Dewpoint: 05° c.
Visibility: 10 Statute Miles.
Clouds: Few 8000 ft.

PHSF 212356Z AUTO 17012G19KT 10SM FEW080 19/05 A3021 RMK AO2 SLP111 WND DATA ESTMD T01930049 10196 20121 57018 $


Wind From 170°
Speed 12 kn.

jpsM music video
CHECK IT OUT

jpsM - It Moves..

 
jpsmedia.com for Web Design  worldairports.se 2018   terms of use